sensor_id;sensor_type;location;lat;lon;timestamp;P1;durP1;ratioP1;P2;durP2;ratioP2
25868;SDS011;13688;53.154;18.136;2023-11-22T00:02:34;21.73;;;10.45;;
25868;SDS011;13688;53.154;18.136;2023-11-22T00:07:57;21.42;;;11.03;;
25868;SDS011;13688;53.154;18.136;2023-11-22T00:13:19;19.85;;;9.88;;
25868;SDS011;13688;53.154;18.136;2023-11-22T00:18:42;21.75;;;10.68;;
25868;SDS011;13688;53.154;18.136;2023-11-22T00:24:04;21.48;;;11.05;;
25868;SDS011;13688;53.154;18.136;2023-11-22T00:29:27;21.33;;;10.63;;
25868;SDS011;13688;53.154;18.136;2023-11-22T00:34:53;25.77;;;10.75;;
25868;SDS011;13688;53.154;18.136;2023-11-22T00:40:16;24.67;;;10.90;;
25868;SDS011;13688;53.154;18.136;2023-11-22T00:45:38;24.63;;;11.18;;
25868;SDS011;13688;53.154;18.136;2023-11-22T00:51:01;22.55;;;11.00;;
25868;SDS011;13688;53.154;18.136;2023-11-22T00:56:23;23.22;;;11.97;;
25868;SDS011;13688;53.154;18.136;2023-11-22T01:01:46;23.23;;;10.77;;
25868;SDS011;13688;53.154;18.136;2023-11-22T01:07:09;22.47;;;11.23;;
25868;SDS011;13688;53.154;18.136;2023-11-22T01:12:31;21.42;;;11.38;;
25868;SDS011;13688;53.154;18.136;2023-11-22T01:17:54;23.85;;;11.75;;
25868;SDS011;13688;53.154;18.136;2023-11-22T01:23:17;28.17;;;12.15;;
25868;SDS011;13688;53.154;18.136;2023-11-22T01:28:40;24.57;;;11.68;;
25868;SDS011;13688;53.154;18.136;2023-11-22T01:34:03;23.27;;;11.22;;
25868;SDS011;13688;53.154;18.136;2023-11-22T01:39:26;22.05;;;11.57;;
25868;SDS011;13688;53.154;18.136;2023-11-22T01:44:49;24.60;;;12.70;;
25868;SDS011;13688;53.154;18.136;2023-11-22T01:55:58;24.63;;;12.30;;
25868;SDS011;13688;53.154;18.136;2023-11-22T02:01:21;21.90;;;12.50;;
25868;SDS011;13688;53.154;18.136;2023-11-22T02:06:44;25.23;;;12.43;;
25868;SDS011;13688;53.154;18.136;2023-11-22T02:12:07;26.90;;;14.00;;
25868;SDS011;13688;53.154;18.136;2023-11-22T02:17:29;26.77;;;13.18;;
25868;SDS011;13688;53.154;18.136;2023-11-22T02:22:54;28.62;;;13.93;;
25868;SDS011;13688;53.154;18.136;2023-11-22T02:28:26;29.07;;;14.40;;
25868;SDS011;13688;53.154;18.136;2023-11-22T02:33:49;29.35;;;14.53;;
25868;SDS011;13688;53.154;18.136;2023-11-22T02:39:11;27.52;;;14.20;;
25868;SDS011;13688;53.154;18.136;2023-11-22T02:44:36;26.75;;;13.85;;
25868;SDS011;13688;53.154;18.136;2023-11-22T02:50:01;23.97;;;12.93;;
25868;SDS011;13688;53.154;18.136;2023-11-22T02:55:25;24.60;;;12.90;;
25868;SDS011;13688;53.154;18.136;2023-11-22T03:00:47;24.63;;;12.70;;
25868;SDS011;13688;53.154;18.136;2023-11-22T03:06:11;23.62;;;12.15;;
25868;SDS011;13688;53.154;18.136;2023-11-22T03:11:34;24.25;;;13.08;;
25868;SDS011;13688;53.154;18.136;2023-11-22T03:16:56;24.77;;;12.93;;
25868;SDS011;13688;53.154;18.136;2023-11-22T03:22:19;27.00;;;13.40;;
25868;SDS011;13688;53.154;18.136;2023-11-22T03:27:41;28.40;;;12.65;;
25868;SDS011;13688;53.154;18.136;2023-11-22T03:33:05;25.10;;;13.00;;
25868;SDS011;13688;53.154;18.136;2023-11-22T03:38:27;22.00;;;12.80;;
25868;SDS011;13688;53.154;18.136;2023-11-22T03:43:50;26.82;;;13.38;;
25868;SDS011;13688;53.154;18.136;2023-11-22T03:49:14;28.00;;;14.13;;
25868;SDS011;13688;53.154;18.136;2023-11-22T03:54:37;26.68;;;12.70;;
25868;SDS011;13688;53.154;18.136;2023-11-22T04:00:01;25.45;;;13.48;;
25868;SDS011;13688;53.154;18.136;2023-11-22T04:05:24;24.30;;;12.10;;
25868;SDS011;13688;53.154;18.136;2023-11-22T04:10:46;25.52;;;12.95;;
25868;SDS011;13688;53.154;18.136;2023-11-22T04:16:09;24.02;;;13.50;;
25868;SDS011;13688;53.154;18.136;2023-11-22T04:21:32;27.87;;;13.77;;
25868;SDS011;13688;53.154;18.136;2023-11-22T04:26:54;26.85;;;13.58;;
25868;SDS011;13688;53.154;18.136;2023-11-22T04:32:18;22.77;;;10.32;;
25868;SDS011;13688;53.154;18.136;2023-11-22T04:37:41;27.32;;;14.03;;
25868;SDS011;13688;53.154;18.136;2023-11-22T04:43:03;25.32;;;13.30;;
25868;SDS011;13688;53.154;18.136;2023-11-22T04:48:27;30.08;;;13.30;;
25868;SDS011;13688;53.154;18.136;2023-11-22T04:53:51;34.30;;;16.87;;
25868;SDS011;13688;53.154;18.136;2023-11-22T04:59:14;29.05;;;15.30;;
25868;SDS011;13688;53.154;18.136;2023-11-22T05:04:36;32.75;;;14.63;;
25868;SDS011;13688;53.154;18.136;2023-11-22T05:10:00;28.80;;;14.95;;
25868;SDS011;13688;53.154;18.136;2023-11-22T05:15:23;24.85;;;12.90;;
25868;SDS011;13688;53.154;18.136;2023-11-22T05:20:45;28.12;;;13.83;;
25868;SDS011;13688;53.154;18.136;2023-11-22T05:26:08;29.92;;;14.85;;
25868;SDS011;13688;53.154;18.136;2023-11-22T05:31:31;26.82;;;14.15;;
25868;SDS011;13688;53.154;18.136;2023-11-22T05:36:56;29.12;;;14.98;;
25868;SDS011;13688;53.154;18.136;2023-11-22T05:42:18;28.40;;;14.73;;
25868;SDS011;13688;53.154;18.136;2023-11-22T05:47:41;27.42;;;14.65;;
25868;SDS011;13688;53.154;18.136;2023-11-22T05:53:03;29.07;;;14.53;;
25868;SDS011;13688;53.154;18.136;2023-11-22T05:58:26;29.07;;;14.98;;
25868;SDS011;13688;53.154;18.136;2023-11-22T06:03:48;30.43;;;14.43;;
25868;SDS011;13688;53.154;18.136;2023-11-22T06:09:13;33.08;;;14.87;;
25868;SDS011;13688;53.154;18.136;2023-11-22T06:14:35;29.10;;;13.80;;
25868;SDS011;13688;53.154;18.136;2023-11-22T06:19:57;29.18;;;15.20;;
25868;SDS011;13688;53.154;18.136;2023-11-22T06:25:21;27.20;;;13.48;;
25868;SDS011;13688;53.154;18.136;2023-11-22T06:30:47;28.52;;;14.47;;
25868;SDS011;13688;53.154;18.136;2023-11-22T06:36:10;32.30;;;14.55;;
25868;SDS011;13688;53.154;18.136;2023-11-22T06:41:33;35.70;;;16.32;;
25868;SDS011;13688;53.154;18.136;2023-11-22T06:46:59;33.33;;;16.05;;
25868;SDS011;13688;53.154;18.136;2023-11-22T06:52:22;29.85;;;16.07;;
25868;SDS011;13688;53.154;18.136;2023-11-22T06:57:49;35.28;;;15.43;;
25868;SDS011;13688;53.154;18.136;2023-11-22T07:03:11;29.23;;;14.15;;
25868;SDS011;13688;53.154;18.136;2023-11-22T07:08:35;30.20;;;15.10;;
25868;SDS011;13688;53.154;18.136;2023-11-22T07:14:01;32.85;;;15.18;;
25868;SDS011;13688;53.154;18.136;2023-11-22T07:19:24;29.60;;;15.15;;
25868;SDS011;13688;53.154;18.136;2023-11-22T07:24:48;25.60;;;12.88;;
25868;SDS011;13688;53.154;18.136;2023-11-22T07:30:12;31.17;;;15.03;;
25868;SDS011;13688;53.154;18.136;2023-11-22T07:35:37;33.88;;;15.32;;
25868;SDS011;13688;53.154;18.136;2023-11-22T07:40:59;32.20;;;17.10;;
25868;SDS011;13688;53.154;18.136;2023-11-22T07:46:22;33.58;;;16.12;;
25868;SDS011;13688;53.154;18.136;2023-11-22T07:51:47;28.90;;;15.05;;
25868;SDS011;13688;53.154;18.136;2023-11-22T07:57:13;38.70;;;16.90;;
25868;SDS011;13688;53.154;18.136;2023-11-22T08:02:38;31.80;;;16.90;;
25868;SDS011;13688;53.154;18.136;2023-11-22T08:08:02;31.70;;;16.23;;
25868;SDS011;13688;53.154;18.136;2023-11-22T08:13:25;33.65;;;15.60;;
25868;SDS011;13688;53.154;18.136;2023-11-22T08:18:49;27.62;;;15.78;;
25868;SDS011;13688;53.154;18.136;2023-11-22T08:24:12;28.87;;;15.15;;
25868;SDS011;13688;53.154;18.136;2023-11-22T08:29:34;29.90;;;15.55;;
25868;SDS011;13688;53.154;18.136;2023-11-22T08:34:57;28.57;;;15.63;;
25868;SDS011;13688;53.154;18.136;2023-11-22T08:40:21;41.80;;;18.57;;
25868;SDS011;13688;53.154;18.136;2023-11-22T08:45:44;59.33;;;22.02;;
25868;SDS011;13688;53.154;18.136;2023-11-22T08:51:12;37.50;;;17.37;;
25868;SDS011;13688;53.154;18.136;2023-11-22T08:56:35;33.38;;;16.45;;
25868;SDS011;13688;53.154;18.136;2023-11-22T09:01:59;28.40;;;16.00;;
25868;SDS011;13688;53.154;18.136;2023-11-22T09:07:22;28.12;;;15.45;;
25868;SDS011;13688;53.154;18.136;2023-11-22T09:12:45;31.15;;;14.98;;
25868;SDS011;13688;53.154;18.136;2023-11-22T09:18:09;31.57;;;15.85;;
25868;SDS011;13688;53.154;18.136;2023-11-22T09:23:33;28.83;;;15.68;;
25868;SDS011;13688;53.154;18.136;2023-11-22T09:28:56;28.98;;;15.15;;
25868;SDS011;13688;53.154;18.136;2023-11-22T09:34:19;27.58;;;13.65;;
25868;SDS011;13688;53.154;18.136;2023-11-22T09:39:42;26.87;;;13.43;;
25868;SDS011;13688;53.154;18.136;2023-11-22T09:45:09;31.97;;;14.90;;
25868;SDS011;13688;53.154;18.136;2023-11-22T09:50:49;30.75;;;15.32;;
25868;SDS011;13688;53.154;18.136;2023-11-22T09:56:28;31.57;;;16.50;;
25868;SDS011;13688;53.154;18.136;2023-11-22T10:01:53;36.48;;;17.15;;
25868;SDS011;13688;53.154;18.136;2023-11-22T10:07:20;27.77;;;15.85;;
25868;SDS011;13688;53.154;18.136;2023-11-22T10:12:43;35.28;;;17.48;;
25868;SDS011;13688;53.154;18.136;2023-11-22T10:18:07;33.78;;;18.02;;
25868;SDS011;13688;53.154;18.136;2023-11-22T10:23:30;33.23;;;16.93;;
25868;SDS011;13688;53.154;18.136;2023-11-22T10:29:05;36.73;;;18.77;;
25868;SDS011;13688;53.154;18.136;2023-11-22T10:34:30;31.23;;;16.35;;
25868;SDS011;13688;53.154;18.136;2023-11-22T10:39:53;34.03;;;16.48;;
25868;SDS011;13688;53.154;18.136;2023-11-22T10:45:17;26.07;;;14.33;;
25868;SDS011;13688;53.154;18.136;2023-11-22T10:50:44;24.33;;;12.97;;
25868;SDS011;13688;53.154;18.136;2023-11-22T10:56:16;33.17;;;15.07;;
25868;SDS011;13688;53.154;18.136;2023-11-22T11:01:47;25.67;;;14.67;;
25868;SDS011;13688;53.154;18.136;2023-11-22T11:07:12;24.92;;;13.60;;
25868;SDS011;13688;53.154;18.136;2023-11-22T11:12:37;26.40;;;14.57;;
25868;SDS011;13688;53.154;18.136;2023-11-22T11:18:01;28.13;;;14.97;;
25868;SDS011;13688;53.154;18.136;2023-11-22T11:23:27;27.07;;;14.05;;
25868;SDS011;13688;53.154;18.136;2023-11-22T11:28:50;31.15;;;15.60;;
25868;SDS011;13688;53.154;18.136;2023-11-22T11:34:14;23.40;;;12.00;;
25868;SDS011;13688;53.154;18.136;2023-11-22T11:39:40;20.60;;;12.70;;
25868;SDS011;13688;53.154;18.136;2023-11-22T11:45:03;21.73;;;12.10;;
25868;SDS011;13688;53.154;18.136;2023-11-22T11:50:27;22.30;;;12.20;;
25868;SDS011;13688;53.154;18.136;2023-11-22T11:55:51;18.67;;;10.90;;
25868;SDS011;13688;53.154;18.136;2023-11-22T12:01:16;21.05;;;11.00;;
25868;SDS011;13688;53.154;18.136;2023-11-22T12:06:39;18.15;;;11.08;;
25868;SDS011;13688;53.154;18.136;2023-11-22T12:12:02;17.75;;;10.00;;
25868;SDS011;13688;53.154;18.136;2023-11-22T12:17:26;21.07;;;11.65;;
25868;SDS011;13688;53.154;18.136;2023-11-22T12:22:49;21.27;;;11.20;;
25868;SDS011;13688;53.154;18.136;2023-11-22T12:28:12;19.05;;;11.10;;
25868;SDS011;13688;53.154;18.136;2023-11-22T12:33:37;20.40;;;11.57;;
25868;SDS011;13688;53.154;18.136;2023-11-22T12:39:02;19.27;;;11.00;;
25868;SDS011;13688;53.154;18.136;2023-11-22T12:44:29;24.77;;;10.68;;
25868;SDS011;13688;53.154;18.136;2023-11-22T12:50:10;20.77;;;11.12;;
25868;SDS011;13688;53.154;18.136;2023-11-22T12:55:49;20.75;;;10.03;;
25868;SDS011;13688;53.154;18.136;2023-11-22T13:01:12;20.32;;;9.65;;
25868;SDS011;13688;53.154;18.136;2023-11-22T13:06:35;17.92;;;9.95;;
25868;SDS011;13688;53.154;18.136;2023-11-22T13:11:58;16.48;;;9.90;;
25868;SDS011;13688;53.154;18.136;2023-11-22T13:17:23;16.80;;;9.70;;
25868;SDS011;13688;53.154;18.136;2023-11-22T13:22:46;17.80;;;10.05;;
25868;SDS011;13688;53.154;18.136;2023-11-22T13:28:09;20.80;;;10.68;;
25868;SDS011;13688;53.154;18.136;2023-11-22T13:33:32;19.42;;;10.28;;
25868;SDS011;13688;53.154;18.136;2023-11-22T13:38:55;30.05;;;10.45;;
25868;SDS011;13688;53.154;18.136;2023-11-22T13:44:19;22.15;;;10.78;;
25868;SDS011;13688;53.154;18.136;2023-11-22T13:49:41;18.37;;;10.05;;
25868;SDS011;13688;53.154;18.136;2023-11-22T13:55:04;20.97;;;11.33;;
25868;SDS011;13688;53.154;18.136;2023-11-22T14:00:30;25.70;;;11.35;;
25868;SDS011;13688;53.154;18.136;2023-11-22T14:05:53;20.02;;;11.28;;
25868;SDS011;13688;53.154;18.136;2023-11-22T14:11:18;19.73;;;10.43;;
25868;SDS011;13688;53.154;18.136;2023-11-22T14:16:41;21.97;;;11.33;;
25868;SDS011;13688;53.154;18.136;2023-11-22T14:22:04;22.75;;;11.53;;
25868;SDS011;13688;53.154;18.136;2023-11-22T14:27:26;21.85;;;11.68;;
25868;SDS011;13688;53.154;18.136;2023-11-22T14:32:57;22.47;;;11.70;;
25868;SDS011;13688;53.154;18.136;2023-11-22T14:38:20;25.80;;;13.10;;
25868;SDS011;13688;53.154;18.136;2023-11-22T14:43:43;26.25;;;13.25;;
25868;SDS011;13688;53.154;18.136;2023-11-22T14:49:06;29.07;;;13.93;;
25868;SDS011;13688;53.154;18.136;2023-11-22T14:54:29;26.68;;;13.50;;
25868;SDS011;13688;53.154;18.136;2023-11-22T14:59:53;24.17;;;12.40;;
25868;SDS011;13688;53.154;18.136;2023-11-22T15:05:19;23.90;;;12.75;;
25868;SDS011;13688;53.154;18.136;2023-11-22T15:10:41;25.73;;;13.27;;
25868;SDS011;13688;53.154;18.136;2023-11-22T15:16:05;24.50;;;13.55;;
25868;SDS011;13688;53.154;18.136;2023-11-22T15:21:28;26.00;;;13.15;;
25868;SDS011;13688;53.154;18.136;2023-11-22T15:26:52;25.27;;;14.00;;
25868;SDS011;13688;53.154;18.136;2023-11-22T15:32:14;34.65;;;15.95;;
25868;SDS011;13688;53.154;18.136;2023-11-22T15:37:37;32.05;;;15.43;;
25868;SDS011;13688;53.154;18.136;2023-11-22T15:43:01;29.67;;;15.65;;
25868;SDS011;13688;53.154;18.136;2023-11-22T15:48:25;32.65;;;17.42;;
25868;SDS011;13688;53.154;18.136;2023-11-22T15:53:47;35.48;;;17.35;;
25868;SDS011;13688;53.154;18.136;2023-11-22T15:59:12;38.00;;;16.93;;
25868;SDS011;13688;53.154;18.136;2023-11-22T16:04:35;34.83;;;17.12;;
25868;SDS011;13688;53.154;18.136;2023-11-22T16:09:57;35.38;;;17.35;;
25868;SDS011;13688;53.154;18.136;2023-11-22T16:15:20;33.75;;;17.67;;
25868;SDS011;13688;53.154;18.136;2023-11-22T16:20:43;35.48;;;17.77;;
25868;SDS011;13688;53.154;18.136;2023-11-22T16:26:06;31.23;;;15.77;;
25868;SDS011;13688;53.154;18.136;2023-11-22T16:31:30;30.08;;;17.15;;
25868;SDS011;13688;53.154;18.136;2023-11-22T16:36:53;34.38;;;16.12;;
25868;SDS011;13688;53.154;18.136;2023-11-22T16:42:16;31.63;;;15.47;;
25868;SDS011;13688;53.154;18.136;2023-11-22T16:47:38;34.33;;;16.67;;
25868;SDS011;13688;53.154;18.136;2023-11-22T16:53:01;33.92;;;16.35;;
25868;SDS011;13688;53.154;18.136;2023-11-22T16:58:25;33.58;;;16.15;;
25868;SDS011;13688;53.154;18.136;2023-11-22T17:03:48;28.57;;;15.05;;
25868;SDS011;13688;53.154;18.136;2023-11-22T17:09:12;29.00;;;15.03;;
25868;SDS011;13688;53.154;18.136;2023-11-22T17:14:34;29.92;;;15.63;;
25868;SDS011;13688;53.154;18.136;2023-11-22T17:19:57;35.13;;;17.62;;
25868;SDS011;13688;53.154;18.136;2023-11-22T17:25:21;33.98;;;16.05;;
25868;SDS011;13688;53.154;18.136;2023-11-22T17:30:46;29.50;;;15.75;;
25868;SDS011;13688;53.154;18.136;2023-11-22T17:36:09;31.90;;;15.85;;
25868;SDS011;13688;53.154;18.136;2023-11-22T17:41:31;33.48;;;15.80;;
25868;SDS011;13688;53.154;18.136;2023-11-22T17:46:54;32.95;;;15.28;;
25868;SDS011;13688;53.154;18.136;2023-11-22T17:52:17;30.32;;;14.33;;
25868;SDS011;13688;53.154;18.136;2023-11-22T17:57:40;30.32;;;14.18;;
25868;SDS011;13688;53.154;18.136;2023-11-22T18:03:03;29.50;;;13.85;;
25868;SDS011;13688;53.154;18.136;2023-11-22T18:08:26;27.80;;;13.58;;
25868;SDS011;13688;53.154;18.136;2023-11-22T18:13:49;25.97;;;12.73;;
25868;SDS011;13688;53.154;18.136;2023-11-22T18:19:13;28.05;;;12.88;;
25868;SDS011;13688;53.154;18.136;2023-11-22T18:24:36;24.40;;;12.53;;
25868;SDS011;13688;53.154;18.136;2023-11-22T18:29:59;27.75;;;13.53;;
25868;SDS011;13688;53.154;18.136;2023-11-22T18:35:23;27.25;;;13.80;;
25868;SDS011;13688;53.154;18.136;2023-11-22T18:40:46;34.30;;;13.62;;
25868;SDS011;13688;53.154;18.136;2023-11-22T18:46:10;27.22;;;14.30;;
25868;SDS011;13688;53.154;18.136;2023-11-22T18:51:33;25.83;;;13.40;;
25868;SDS011;13688;53.154;18.136;2023-11-22T18:56:56;26.02;;;13.13;;
25868;SDS011;13688;53.154;18.136;2023-11-22T19:02:19;26.45;;;13.95;;
25868;SDS011;13688;53.154;18.136;2023-11-22T19:07:45;25.65;;;13.48;;
25868;SDS011;13688;53.154;18.136;2023-11-22T19:13:07;29.52;;;13.72;;
25868;SDS011;13688;53.154;18.136;2023-11-22T19:18:31;27.42;;;12.80;;
25868;SDS011;13688;53.154;18.136;2023-11-22T19:23:55;23.05;;;12.37;;
25868;SDS011;13688;53.154;18.136;2023-11-22T19:29:19;25.27;;;12.93;;
25868;SDS011;13688;53.154;18.136;2023-11-22T19:34:42;23.05;;;11.65;;
25868;SDS011;13688;53.154;18.136;2023-11-22T19:40:15;25.33;;;12.30;;
25868;SDS011;13688;53.154;18.136;2023-11-22T19:45:41;27.63;;;12.43;;
25868;SDS011;13688;53.154;18.136;2023-11-22T19:51:05;24.50;;;11.68;;
25868;SDS011;13688;53.154;18.136;2023-11-22T19:56:28;23.33;;;12.90;;
25868;SDS011;13688;53.154;18.136;2023-11-22T20:01:51;23.87;;;12.00;;
25868;SDS011;13688;53.154;18.136;2023-11-22T20:07:13;26.37;;;13.20;;
25868;SDS011;13688;53.154;18.136;2023-11-22T20:12:36;23.87;;;13.00;;
25868;SDS011;13688;53.154;18.136;2023-11-22T20:17:58;28.67;;;14.03;;
25868;SDS011;13688;53.154;18.136;2023-11-22T20:23:21;27.00;;;13.23;;
25868;SDS011;13688;53.154;18.136;2023-11-22T20:28:44;32.97;;;15.27;;
25868;SDS011;13688;53.154;18.136;2023-11-22T20:34:08;29.05;;;14.25;;
25868;SDS011;13688;53.154;18.136;2023-11-22T20:39:31;29.30;;;13.90;;
25868;SDS011;13688;53.154;18.136;2023-11-22T20:44:53;30.37;;;15.00;;
25868;SDS011;13688;53.154;18.136;2023-11-22T20:50:17;30.62;;;13.40;;
25868;SDS011;13688;53.154;18.136;2023-11-22T20:55:40;34.78;;;13.38;;
25868;SDS011;13688;53.154;18.136;2023-11-22T21:01:03;32.88;;;13.83;;
25868;SDS011;13688;53.154;18.136;2023-11-22T21:06:25;37.30;;;14.50;;
25868;SDS011;13688;53.154;18.136;2023-11-22T21:11:51;28.70;;;13.98;;
25868;SDS011;13688;53.154;18.136;2023-11-22T21:17:14;29.40;;;13.40;;
25868;SDS011;13688;53.154;18.136;2023-11-22T21:22:39;28.05;;;12.85;;
25868;SDS011;13688;53.154;18.136;2023-11-22T21:28:01;28.12;;;13.58;;
25868;SDS011;13688;53.154;18.136;2023-11-22T21:33:25;24.37;;;12.73;;
25868;SDS011;13688;53.154;18.136;2023-11-22T21:38:48;29.98;;;12.88;;
25868;SDS011;13688;53.154;18.136;2023-11-22T21:44:16;28.30;;;12.95;;
25868;SDS011;13688;53.154;18.136;2023-11-22T21:49:38;27.30;;;13.15;;
25868;SDS011;13688;53.154;18.136;2023-11-22T21:55:01;27.85;;;13.30;;
25868;SDS011;13688;53.154;18.136;2023-11-22T22:00:24;26.17;;;12.98;;
25868;SDS011;13688;53.154;18.136;2023-11-22T22:05:46;26.15;;;12.50;;
25868;SDS011;13688;53.154;18.136;2023-11-22T22:11:10;27.77;;;13.72;;
25868;SDS011;13688;53.154;18.136;2023-11-22T22:16:34;29.07;;;14.23;;
25868;SDS011;13688;53.154;18.136;2023-11-22T22:21:56;33.80;;;15.45;;
25868;SDS011;13688;53.154;18.136;2023-11-22T22:27:19;30.50;;;15.93;;
25868;SDS011;13688;53.154;18.136;2023-11-22T22:32:42;33.67;;;15.55;;
25868;SDS011;13688;53.154;18.136;2023-11-22T22:38:05;34.05;;;15.83;;
25868;SDS011;13688;53.154;18.136;2023-11-22T22:43:28;28.05;;;14.85;;
25868;SDS011;13688;53.154;18.136;2023-11-22T22:48:51;35.13;;;16.05;;
25868;SDS011;13688;53.154;18.136;2023-11-22T22:54:14;34.45;;;15.23;;
25868;SDS011;13688;53.154;18.136;2023-11-22T22:59:36;35.83;;;16.57;;
25868;SDS011;13688;53.154;18.136;2023-11-22T23:04:59;35.98;;;16.82;;
25868;SDS011;13688;53.154;18.136;2023-11-22T23:10:23;34.30;;;17.20;;
25868;SDS011;13688;53.154;18.136;2023-11-22T23:15:46;37.10;;;16.52;;
25868;SDS011;13688;53.154;18.136;2023-11-22T23:21:08;35.78;;;16.77;;
25868;SDS011;13688;53.154;18.136;2023-11-22T23:26:31;33.83;;;16.65;;
25868;SDS011;13688;53.154;18.136;2023-11-22T23:31:53;34.60;;;16.73;;
25868;SDS011;13688;53.154;18.136;2023-11-22T23:37:16;36.60;;;17.02;;
25868;SDS011;13688;53.154;18.136;2023-11-22T23:42:42;34.08;;;16.95;;
25868;SDS011;13688;53.154;18.136;2023-11-22T23:48:06;36.83;;;18.65;;
25868;SDS011;13688;53.154;18.136;2023-11-22T23:53:28;39.42;;;19.70;;
25868;SDS011;13688;53.154;18.136;2023-11-22T23:58:52;39.75;;;20.17;;
